Terminal Aerodrome Forecast
Issued by NWS

Home | Current Version | Previous Version | Text Only | Print | Product List | Glossary On
Versions: 1 2 3 4 5 6 7 8 9 10 11 12 13 14 15 16 17 18 19
000
FTUS42 TJSJ 221700
TAFIST
TAF
TIST 221734Z 2218/2318 15012KT P6SM SCT025
     FM222100 10007KT P6SM FEW025
     FM231400 12012KT P6SM SCT025=

USA.gov is the U.S. government's official web portal to all federal, state and local government web resources and services.